sensor_id;sensor_type;location;lat;lon;timestamp;P1;durP1;ratioP1;P2;durP2;ratioP2
52494;SDS011;38405;53.212;5.660;2022-08-21T00:01:43;19.00;;;7.45;;
52494;SDS011;38405;53.212;5.660;2022-08-21T00:04:09;16.92;;;7.18;;
52494;SDS011;38405;53.212;5.660;2022-08-21T00:06:36;13.93;;;7.32;;
52494;SDS011;38405;53.212;5.660;2022-08-21T00:09:02;15.60;;;6.97;;
52494;SDS011;38405;53.212;5.660;2022-08-21T00:11:30;19.63;;;7.35;;
52494;SDS011;38405;53.212;5.660;2022-08-21T00:13:57;12.57;;;7.22;;
52494;SDS011;38405;53.212;5.660;2022-08-21T00:16:22;20.70;;;7.80;;
52494;SDS011;38405;53.212;5.660;2022-08-21T00:18:48;19.48;;;7.63;;
52494;SDS011;38405;53.212;5.660;2022-08-21T00:21:14;21.42;;;7.88;;
52494;SDS011;38405;53.212;5.660;2022-08-21T00:23:40;17.75;;;7.95;;
52494;SDS011;38405;53.212;5.660;2022-08-21T00:26:06;18.80;;;7.35;;
52494;SDS011;38405;53.212;5.660;2022-08-21T00:28:32;17.65;;;7.90;;
52494;SDS011;38405;53.212;5.660;2022-08-21T00:30:58;14.43;;;7.20;;
52494;SDS011;38405;53.212;5.660;2022-08-21T00:33:24;18.27;;;7.28;;
52494;SDS011;38405;53.212;5.660;2022-08-21T00:35:51;23.80;;;7.80;;
52494;SDS011;38405;53.212;5.660;2022-08-21T00:38:16;17.83;;;7.57;;
52494;SDS011;38405;53.212;5.660;2022-08-21T00:40:45;18.08;;;7.85;;
52494;SDS011;38405;53.212;5.660;2022-08-21T00:43:22;18.15;;;8.13;;
52494;SDS011;38405;53.212;5.660;2022-08-21T00:45:52;14.93;;;7.70;;
52494;SDS011;38405;53.212;5.660;2022-08-21T00:48:19;21.75;;;8.38;;
52494;SDS011;38405;53.212;5.660;2022-08-21T00:50:46;16.80;;;7.47;;
52494;SDS011;38405;53.212;5.660;2022-08-21T00:53:17;19.25;;;8.23;;
52494;SDS011;38405;53.212;5.660;2022-08-21T00:55:43;16.83;;;7.68;;
52494;SDS011;38405;53.212;5.660;2022-08-21T00:58:10;18.23;;;7.72;;
52494;SDS011;38405;53.212;5.660;2022-08-21T01:00:39;15.38;;;8.32;;
52494;SDS011;38405;53.212;5.660;2022-08-21T01:03:18;21.02;;;7.97;;
52494;SDS011;38405;53.212;5.660;2022-08-21T01:05:46;13.27;;;7.30;;
52494;SDS011;38405;53.212;5.660;2022-08-21T01:08:13;16.50;;;7.57;;
52494;SDS011;38405;53.212;5.660;2022-08-21T01:10:42;19.70;;;7.47;;
52494;SDS011;38405;53.212;5.660;2022-08-21T01:13:09;16.83;;;7.95;;
52494;SDS011;38405;53.212;5.660;2022-08-21T01:15:37;16.52;;;7.13;;
52494;SDS011;38405;53.212;5.660;2022-08-21T01:18:09;15.93;;;7.47;;
52494;SDS011;38405;53.212;5.660;2022-08-21T01:20:36;21.25;;;7.97;;
52494;SDS011;38405;53.212;5.660;2022-08-21T01:23:03;19.58;;;7.35;;
52494;SDS011;38405;53.212;5.660;2022-08-21T01:25:30;16.08;;;8.15;;
52494;SDS011;38405;53.212;5.660;2022-08-21T01:27:56;15.05;;;7.60;;
52494;SDS011;38405;53.212;5.660;2022-08-21T01:30:26;14.80;;;7.65;;
52494;SDS011;38405;53.212;5.660;2022-08-21T01:32:53;15.57;;;6.88;;
52494;SDS011;38405;53.212;5.660;2022-08-21T01:35:20;20.40;;;7.97;;
52494;SDS011;38405;53.212;5.660;2022-08-21T01:37:47;18.00;;;7.63;;
52494;SDS011;38405;53.212;5.660;2022-08-21T01:40:14;16.20;;;7.43;;
52494;SDS011;38405;53.212;5.660;2022-08-21T01:42:41;15.48;;;7.25;;
52494;SDS011;38405;53.212;5.660;2022-08-21T01:45:08;16.88;;;8.30;;
52494;SDS011;38405;53.212;5.660;2022-08-21T01:47:34;17.13;;;7.43;;
52494;SDS011;38405;53.212;5.660;2022-08-21T01:50:01;14.93;;;6.93;;
52494;SDS011;38405;53.212;5.660;2022-08-21T01:52:29;14.25;;;6.45;;
52494;SDS011;38405;53.212;5.660;2022-08-21T01:54:55;15.60;;;6.75;;
52494;SDS011;38405;53.212;5.660;2022-08-21T01:57:20;9.95;;;6.25;;
52494;SDS011;38405;53.212;5.660;2022-08-21T01:59:47;13.88;;;7.20;;
52494;SDS011;38405;53.212;5.660;2022-08-21T02:02:12;14.55;;;7.95;;
52494;SDS011;38405;53.212;5.660;2022-08-21T02:04:38;14.60;;;7.13;;
52494;SDS011;38405;53.212;5.660;2022-08-21T02:07:04;20.48;;;7.80;;
52494;SDS011;38405;53.212;5.660;2022-08-21T02:09:29;18.17;;;7.88;;
52494;SDS011;38405;53.212;5.660;2022-08-21T02:11:55;18.58;;;7.90;;
52494;SDS011;38405;53.212;5.660;2022-08-21T02:14:21;21.02;;;8.07;;
52494;SDS011;38405;53.212;5.660;2022-08-21T02:16:47;18.25;;;8.10;;
52494;SDS011;38405;53.212;5.660;2022-08-21T02:19:13;19.92;;;8.00;;
52494;SDS011;38405;53.212;5.660;2022-08-21T02:21:40;16.73;;;7.45;;
52494;SDS011;38405;53.212;5.660;2022-08-21T02:24:06;19.38;;;7.50;;
52494;SDS011;38405;53.212;5.660;2022-08-21T02:26:33;17.52;;;7.43;;
52494;SDS011;38405;53.212;5.660;2022-08-21T02:28:58;17.88;;;7.00;;
52494;SDS011;38405;53.212;5.660;2022-08-21T02:31:24;11.52;;;6.28;;
52494;SDS011;38405;53.212;5.660;2022-08-21T02:33:50;13.50;;;6.40;;
52494;SDS011;38405;53.212;5.660;2022-08-21T02:36:17;15.38;;;6.75;;
52494;SDS011;38405;53.212;5.660;2022-08-21T02:38:43;12.80;;;6.90;;
52494;SDS011;38405;53.212;5.660;2022-08-21T02:41:12;13.70;;;6.38;;
52494;SDS011;38405;53.212;5.660;2022-08-21T02:43:39;25.70;;;7.60;;
52494;SDS011;38405;53.212;5.660;2022-08-21T02:46:05;18.45;;;7.35;;
52494;SDS011;38405;53.212;5.660;2022-08-21T02:48:32;18.33;;;7.63;;
52494;SDS011;38405;53.212;5.660;2022-08-21T02:51:04;15.85;;;7.95;;
52494;SDS011;38405;53.212;5.660;2022-08-21T02:53:30;20.98;;;7.57;;
52494;SDS011;38405;53.212;5.660;2022-08-21T02:55:57;20.58;;;8.10;;
52494;SDS011;38405;53.212;5.660;2022-08-21T02:58:30;21.23;;;8.45;;
52494;SDS011;38405;53.212;5.660;2022-08-21T03:00:58;23.25;;;8.15;;
52494;SDS011;38405;53.212;5.660;2022-08-21T03:03:24;17.60;;;7.45;;
52494;SDS011;38405;53.212;5.660;2022-08-21T03:05:51;18.55;;;8.30;;
52494;SDS011;38405;53.212;5.660;2022-08-21T03:08:17;21.05;;;8.38;;
52494;SDS011;38405;53.212;5.660;2022-08-21T03:10:45;23.13;;;8.43;;
52494;SDS011;38405;53.212;5.660;2022-08-21T03:13:12;20.27;;;8.15;;
52494;SDS011;38405;53.212;5.660;2022-08-21T03:15:39;18.33;;;8.20;;
52494;SDS011;38405;53.212;5.660;2022-08-21T03:18:06;14.38;;;7.68;;
52494;SDS011;38405;53.212;5.660;2022-08-21T03:20:33;21.77;;;8.60;;
52494;SDS011;38405;53.212;5.660;2022-08-21T03:23:00;21.02;;;7.68;;
52494;SDS011;38405;53.212;5.660;2022-08-21T03:25:28;21.70;;;8.35;;
52494;SDS011;38405;53.212;5.660;2022-08-21T03:27:57;21.77;;;7.72;;
52494;SDS011;38405;53.212;5.660;2022-08-21T03:30:23;21.30;;;8.93;;
52494;SDS011;38405;53.212;5.660;2022-08-21T03:32:49;14.15;;;7.93;;
52494;SDS011;38405;53.212;5.660;2022-08-21T03:35:15;22.08;;;8.95;;
52494;SDS011;38405;53.212;5.660;2022-08-21T03:37:42;23.92;;;9.48;;
52494;SDS011;38405;53.212;5.660;2022-08-21T03:40:09;25.35;;;8.85;;
52494;SDS011;38405;53.212;5.660;2022-08-21T03:42:36;17.42;;;8.98;;
52494;SDS011;38405;53.212;5.660;2022-08-21T03:45:02;21.52;;;8.50;;
52494;SDS011;38405;53.212;5.660;2022-08-21T03:47:29;22.17;;;8.32;;
52494;SDS011;38405;53.212;5.660;2022-08-21T03:49:55;17.10;;;8.52;;
52494;SDS011;38405;53.212;5.660;2022-08-21T03:52:20;23.52;;;9.05;;
52494;SDS011;38405;53.212;5.660;2022-08-21T03:54:46;20.08;;;9.10;;
52494;SDS011;38405;53.212;5.660;2022-08-21T03:57:12;25.52;;;8.43;;
52494;SDS011;38405;53.212;5.660;2022-08-21T03:59:38;32.38;;;8.85;;
52494;SDS011;38405;53.212;5.660;2022-08-21T04:02:08;21.17;;;8.48;;
52494;SDS011;38405;53.212;5.660;2022-08-21T04:04:35;24.20;;;8.55;;
52494;SDS011;38405;53.212;5.660;2022-08-21T04:07:01;23.85;;;8.95;;
52494;SDS011;38405;53.212;5.660;2022-08-21T04:09:27;20.58;;;8.30;;
52494;SDS011;38405;53.212;5.660;2022-08-21T04:11:52;25.42;;;8.90;;
52494;SDS011;38405;53.212;5.660;2022-08-21T04:14:18;20.60;;;9.07;;
52494;SDS011;38405;53.212;5.660;2022-08-21T04:16:45;27.25;;;9.10;;
52494;SDS011;38405;53.212;5.660;2022-08-21T04:19:11;24.60;;;9.35;;
52494;SDS011;38405;53.212;5.660;2022-08-21T04:21:40;25.05;;;8.20;;
52494;SDS011;38405;53.212;5.660;2022-08-21T04:24:07;18.70;;;8.95;;
52494;SDS011;38405;53.212;5.660;2022-08-21T04:26:35;27.90;;;9.55;;
52494;SDS011;38405;53.212;5.660;2022-08-21T04:29:01;27.10;;;8.95;;
52494;SDS011;38405;53.212;5.660;2022-08-21T04:31:28;22.27;;;9.20;;
52494;SDS011;38405;53.212;5.660;2022-08-21T04:33:53;27.55;;;9.70;;
52494;SDS011;38405;53.212;5.660;2022-08-21T04:36:19;29.45;;;9.85;;
52494;SDS011;38405;53.212;5.660;2022-08-21T04:38:45;25.20;;;10.15;;
52494;SDS011;38405;53.212;5.660;2022-08-21T04:41:11;18.08;;;8.35;;
52494;SDS011;38405;53.212;5.660;2022-08-21T04:43:37;24.00;;;9.02;;
52494;SDS011;38405;53.212;5.660;2022-08-21T04:46:03;19.83;;;8.27;;
52494;SDS011;38405;53.212;5.660;2022-08-21T04:48:29;22.17;;;9.20;;
52494;SDS011;38405;53.212;5.660;2022-08-21T04:53:26;21.38;;;8.10;;
52494;SDS011;38405;53.212;5.660;2022-08-21T04:56:00;27.40;;;9.00;;
52494;SDS011;38405;53.212;5.660;2022-08-21T04:58:30;29.67;;;9.30;;
52494;SDS011;38405;53.212;5.660;2022-08-21T05:00:58;27.35;;;8.18;;
52494;SDS011;38405;53.212;5.660;2022-08-21T05:03:26;26.60;;;8.70;;
52494;SDS011;38405;53.212;5.660;2022-08-21T05:05:53;22.92;;;8.90;;
52494;SDS011;38405;53.212;5.660;2022-08-21T05:08:20;21.73;;;9.10;;
52494;SDS011;38405;53.212;5.660;2022-08-21T05:10:48;25.23;;;8.35;;
52494;SDS011;38405;53.212;5.660;2022-08-21T05:13:14;22.40;;;8.85;;
52494;SDS011;38405;53.212;5.660;2022-08-21T05:15:41;27.08;;;8.18;;
52494;SDS011;38405;53.212;5.660;2022-08-21T05:18:07;23.23;;;8.27;;
52494;SDS011;38405;53.212;5.660;2022-08-21T05:20:33;20.60;;;7.43;;
52494;SDS011;38405;53.212;5.660;2022-08-21T05:22:59;22.27;;;8.55;;
52494;SDS011;38405;53.212;5.660;2022-08-21T05:25:26;18.88;;;7.53;;
52494;SDS011;38405;53.212;5.660;2022-08-21T05:27:52;21.88;;;8.27;;
52494;SDS011;38405;53.212;5.660;2022-08-21T05:30:18;21.17;;;7.45;;
52494;SDS011;38405;53.212;5.660;2022-08-21T05:32:45;22.25;;;7.38;;
52494;SDS011;38405;53.212;5.660;2022-08-21T05:35:11;29.00;;;7.93;;
52494;SDS011;38405;53.212;5.660;2022-08-21T05:37:37;20.08;;;6.93;;
52494;SDS011;38405;53.212;5.660;2022-08-21T05:40:03;28.05;;;7.50;;
52494;SDS011;38405;53.212;5.660;2022-08-21T05:42:30;22.30;;;6.97;;
52494;SDS011;38405;53.212;5.660;2022-08-21T05:44:56;21.35;;;6.80;;
52494;SDS011;38405;53.212;5.660;2022-08-21T05:47:21;30.48;;;6.60;;
52494;SDS011;38405;53.212;5.660;2022-08-21T05:49:47;23.88;;;6.38;;
52494;SDS011;38405;53.212;5.660;2022-08-21T05:52:17;23.17;;;6.40;;
52494;SDS011;38405;53.212;5.660;2022-08-21T05:54:46;19.33;;;5.90;;
52494;SDS011;38405;53.212;5.660;2022-08-21T05:57:12;22.45;;;5.78;;
52494;SDS011;38405;53.212;5.660;2022-08-21T05:59:38;18.00;;;4.93;;
52494;SDS011;38405;53.212;5.660;2022-08-21T06:02:03;18.20;;;5.15;;
52494;SDS011;38405;53.212;5.660;2022-08-21T06:04:29;17.63;;;5.22;;
52494;SDS011;38405;53.212;5.660;2022-08-21T06:06:55;15.65;;;4.88;;
52494;SDS011;38405;53.212;5.660;2022-08-21T06:09:20;19.23;;;4.53;;
52494;SDS011;38405;53.212;5.660;2022-08-21T06:11:46;18.13;;;4.28;;
52494;SDS011;38405;53.212;5.660;2022-08-21T06:14:15;21.70;;;4.13;;
52494;SDS011;38405;53.212;5.660;2022-08-21T06:16:41;13.55;;;4.18;;
52494;SDS011;38405;53.212;5.660;2022-08-21T06:19:07;10.05;;;4.10;;
52494;SDS011;38405;53.212;5.660;2022-08-21T06:21:32;23.20;;;4.43;;
52494;SDS011;38405;53.212;5.660;2022-08-21T06:23:58;16.23;;;4.20;;
52494;SDS011;38405;53.212;5.660;2022-08-21T06:26:23;15.82;;;4.05;;
52494;SDS011;38405;53.212;5.660;2022-08-21T06:28:49;14.55;;;4.05;;
52494;SDS011;38405;53.212;5.660;2022-08-21T06:31:20;12.00;;;3.53;;
52494;SDS011;38405;53.212;5.660;2022-08-21T06:33:47;14.60;;;4.30;;
52494;SDS011;38405;53.212;5.660;2022-08-21T06:36:13;14.43;;;3.65;;
52494;SDS011;38405;53.212;5.660;2022-08-21T06:38:39;12.45;;;3.53;;
52494;SDS011;38405;53.212;5.660;2022-08-21T06:41:05;17.08;;;3.78;;
52494;SDS011;38405;53.212;5.660;2022-08-21T06:43:32;12.88;;;3.78;;
52494;SDS011;38405;53.212;5.660;2022-08-21T06:45:57;14.05;;;3.50;;
52494;SDS011;38405;53.212;5.660;2022-08-21T06:48:23;16.50;;;3.97;;
52494;SDS011;38405;53.212;5.660;2022-08-21T06:50:49;22.85;;;3.70;;
52494;SDS011;38405;53.212;5.660;2022-08-21T06:53:16;15.43;;;4.05;;
52494;SDS011;38405;53.212;5.660;2022-08-21T06:55:43;19.70;;;3.78;;
52494;SDS011;38405;53.212;5.660;2022-08-21T06:58:09;16.58;;;3.35;;
52494;SDS011;38405;53.212;5.660;2022-08-21T07:00:37;12.80;;;3.55;;
52494;SDS011;38405;53.212;5.660;2022-08-21T07:03:04;13.43;;;3.05;;
52494;SDS011;38405;53.212;5.660;2022-08-21T07:05:30;9.85;;;2.78;;
52494;SDS011;38405;53.212;5.660;2022-08-21T07:07:56;10.45;;;2.50;;
52494;SDS011;38405;53.212;5.660;2022-08-21T07:10:23;13.55;;;3.20;;
52494;SDS011;38405;53.212;5.660;2022-08-21T07:12:50;11.52;;;2.90;;
52494;SDS011;38405;53.212;5.660;2022-08-21T07:15:17;10.50;;;3.08;;
52494;SDS011;38405;53.212;5.660;2022-08-21T07:17:43;9.48;;;2.58;;
52494;SDS011;38405;53.212;5.660;2022-08-21T07:20:08;9.68;;;2.80;;
52494;SDS011;38405;53.212;5.660;2022-08-21T07:22:35;9.75;;;2.90;;
52494;SDS011;38405;53.212;5.660;2022-08-21T07:25:01;8.43;;;2.47;;
52494;SDS011;38405;53.212;5.660;2022-08-21T07:27:27;10.30;;;2.45;;
52494;SDS011;38405;53.212;5.660;2022-08-21T07:29:53;13.52;;;2.75;;
52494;SDS011;38405;53.212;5.660;2022-08-21T07:32:18;12.15;;;2.97;;
52494;SDS011;38405;53.212;5.660;2022-08-21T07:34:44;11.27;;;3.22;;
52494;SDS011;38405;53.212;5.660;2022-08-21T07:37:10;11.40;;;2.70;;
52494;SDS011;38405;53.212;5.660;2022-08-21T07:39:35;10.93;;;3.20;;
52494;SDS011;38405;53.212;5.660;2022-08-21T07:42:01;7.47;;;2.55;;
52494;SDS011;38405;53.212;5.660;2022-08-21T07:44:28;11.65;;;2.97;;
52494;SDS011;38405;53.212;5.660;2022-08-21T07:46:53;14.10;;;3.30;;
52494;SDS011;38405;53.212;5.660;2022-08-21T07:49:19;9.50;;;2.92;;
52494;SDS011;38405;53.212;5.660;2022-08-21T07:51:44;7.90;;;2.22;;
52494;SDS011;38405;53.212;5.660;2022-08-21T07:54:11;13.95;;;3.20;;
52494;SDS011;38405;53.212;5.660;2022-08-21T07:56:36;11.45;;;2.75;;
52494;SDS011;38405;53.212;5.660;2022-08-21T07:59:02;11.02;;;2.92;;
52494;SDS011;38405;53.212;5.660;2022-08-21T08:01:28;10.73;;;2.72;;
52494;SDS011;38405;53.212;5.660;2022-08-21T08:03:54;10.70;;;2.45;;
52494;SDS011;38405;53.212;5.660;2022-08-21T08:06:21;11.18;;;3.25;;
52494;SDS011;38405;53.212;5.660;2022-08-21T08:08:48;10.93;;;2.78;;
52494;SDS011;38405;53.212;5.660;2022-08-21T08:11:13;8.15;;;2.63;;
52494;SDS011;38405;53.212;5.660;2022-08-21T08:13:44;10.13;;;2.53;;
52494;SDS011;38405;53.212;5.660;2022-08-21T08:16:12;11.90;;;2.95;;
52494;SDS011;38405;53.212;5.660;2022-08-21T08:18:38;6.95;;;2.40;;
52494;SDS011;38405;53.212;5.660;2022-08-21T08:21:04;11.77;;;2.63;;
52494;SDS011;38405;53.212;5.660;2022-08-21T08:23:31;11.27;;;3.30;;
52494;SDS011;38405;53.212;5.660;2022-08-21T08:25:57;8.43;;;2.10;;
52494;SDS011;38405;53.212;5.660;2022-08-21T08:28:23;9.52;;;3.17;;
52494;SDS011;38405;53.212;5.660;2022-08-21T08:30:50;7.15;;;2.28;;
52494;SDS011;38405;53.212;5.660;2022-08-21T08:33:16;9.13;;;2.55;;
52494;SDS011;38405;53.212;5.660;2022-08-21T08:35:42;8.35;;;2.55;;
52494;SDS011;38405;53.212;5.660;2022-08-21T08:38:11;9.82;;;2.58;;
52494;SDS011;38405;53.212;5.660;2022-08-21T08:41:12;9.13;;;3.03;;
52494;SDS011;38405;53.212;5.660;2022-08-21T08:43:35;10.18;;;2.53;;
52494;SDS011;38405;53.212;5.660;2022-08-21T08:46:03;8.63;;;2.50;;
52494;SDS011;38405;53.212;5.660;2022-08-21T08:48:34;7.43;;;2.05;;
52494;SDS011;38405;53.212;5.660;2022-08-21T08:53:50;9.07;;;2.35;;
52494;SDS011;38405;53.212;5.660;2022-08-21T08:56:21;9.00;;;2.75;;
52494;SDS011;38405;53.212;5.660;2022-08-21T08:58:51;9.00;;;2.97;;
52494;SDS011;38405;53.212;5.660;2022-08-21T09:01:18;7.05;;;2.30;;
52494;SDS011;38405;53.212;5.660;2022-08-21T09:03:45;10.63;;;2.47;;
52494;SDS011;38405;53.212;5.660;2022-08-21T09:17:54;7.20;;;2.20;;
52494;SDS011;38405;53.212;5.660;2022-08-21T09:25:51;9.90;;;2.38;;
52494;SDS011;38405;53.212;5.660;2022-08-21T09:28:27;8.60;;;2.35;;
52494;SDS011;38405;53.212;5.660;2022-08-21T09:30:56;5.78;;;2.03;;
52494;SDS011;38405;53.212;5.660;2022-08-21T09:33:27;7.63;;;2.20;;
52494;SDS011;38405;53.212;5.660;2022-08-21T09:35:54;7.35;;;2.00;;
52494;SDS011;38405;53.212;5.660;2022-08-21T09:38:28;4.95;;;1.55;;
52494;SDS011;38405;53.212;5.660;2022-08-21T09:41:00;5.10;;;1.88;;
52494;SDS011;38405;53.212;5.660;2022-08-21T09:43:28;7.75;;;2.25;;
52494;SDS011;38405;53.212;5.660;2022-08-21T09:46:08;8.73;;;2.28;;
52494;SDS011;38405;53.212;5.660;2022-08-21T09:48:47;5.28;;;1.70;;
52494;SDS011;38405;53.212;5.660;2022-08-21T09:51:16;7.40;;;2.00;;
52494;SDS011;38405;53.212;5.660;2022-08-21T09:56:38;6.43;;;1.63;;
52494;SDS011;38405;53.212;5.660;2022-08-21T09:59:35;5.00;;;1.83;;
52494;SDS011;38405;53.212;5.660;2022-08-21T10:02:07;4.75;;;1.60;;
52494;SDS011;38405;53.212;5.660;2022-08-21T10:04:49;3.65;;;1.70;;
52494;SDS011;38405;53.212;5.660;2022-08-21T10:07:20;7.13;;;1.42;;
52494;SDS011;38405;53.212;5.660;2022-08-21T10:09:58;5.60;;;1.40;;
52494;SDS011;38405;53.212;5.660;2022-08-21T10:12:55;9.43;;;1.45;;
52494;SDS011;38405;53.212;5.660;2022-08-21T10:18:35;6.95;;;1.50;;
52494;SDS011;38405;53.212;5.660;2022-08-21T10:21:04;7.63;;;1.60;;
52494;SDS011;38405;53.212;5.660;2022-08-21T10:23:50;4.97;;;1.67;;
52494;SDS011;38405;53.212;5.660;2022-08-21T10:26:31;6.28;;;1.70;;
52494;SDS011;38405;53.212;5.660;2022-08-21T10:29:37;5.85;;;1.60;;
52494;SDS011;38405;53.212;5.660;2022-08-21T10:32:27;3.85;;;1.60;;
52494;SDS011;38405;53.212;5.660;2022-08-21T10:40:36;6.55;;;1.98;;
52494;SDS011;38405;53.212;5.660;2022-08-21T10:49:24;3.30;;;1.35;;
52494;SDS011;38405;53.212;5.660;2022-08-21T10:55:06;5.20;;;1.50;;
52494;SDS011;38405;53.212;5.660;2022-08-21T10:57:57;3.78;;;1.65;;
52494;SDS011;38405;53.212;5.660;2022-08-21T11:03:24;4.88;;;1.65;;
52494;SDS011;38405;53.212;5.660;2022-08-21T11:06:01;5.53;;;2.08;;
52494;SDS011;38405;53.212;5.660;2022-08-21T11:08:50;5.70;;;1.55;;
52494;SDS011;38405;53.212;5.660;2022-08-21T11:11:21;6.03;;;1.80;;
52494;SDS011;38405;53.212;5.660;2022-08-21T11:14:13;7.70;;;1.55;;
52494;SDS011;38405;53.212;5.660;2022-08-21T11:17:09;3.58;;;1.52;;
52494;SDS011;38405;53.212;5.660;2022-08-21T11:19:40;4.15;;;1.60;;
52494;SDS011;38405;53.212;5.660;2022-08-21T11:22:13;10.48;;;1.58;;
52494;SDS011;38405;53.212;5.660;2022-08-21T11:25:06;8.73;;;2.00;;
52494;SDS011;38405;53.212;5.660;2022-08-21T11:31:01;5.55;;;1.77;;
52494;SDS011;38405;53.212;5.660;2022-08-21T11:39:06;11.77;;;1.70;;
52494;SDS011;38405;53.212;5.660;2022-08-21T11:42:12;3.83;;;1.60;;
52494;SDS011;38405;53.212;5.660;2022-08-21T11:50:28;4.90;;;1.40;;
52494;SDS011;38405;53.212;5.660;2022-08-21T11:53:01;3.55;;;1.38;;
52494;SDS011;38405;53.212;5.660;2022-08-21T11:55:44;4.43;;;1.50;;
52494;SDS011;38405;53.212;5.660;2022-08-21T12:00:54;6.53;;;1.70;;
52494;SDS011;38405;53.212;5.660;2022-08-21T12:05:56;6.15;;;1.55;;
52494;SDS011;38405;53.212;5.660;2022-08-21T12:13:55;5.45;;;1.70;;
52494;SDS011;38405;53.212;5.660;2022-08-21T12:19:43;12.15;;;1.90;;
52494;SDS011;38405;53.212;5.660;2022-08-21T12:24:20;6.63;;;1.65;;
52494;SDS011;38405;53.212;5.660;2022-08-21T12:27:19;8.18;;;2.00;;
52494;SDS011;38405;53.212;5.660;2022-08-21T12:30:00;7.47;;;1.70;;
52494;SDS011;38405;53.212;5.660;2022-08-21T12:32:30;8.48;;;1.70;;
52494;SDS011;38405;53.212;5.660;2022-08-21T12:35:21;3.92;;;1.30;;
52494;SDS011;38405;53.212;5.660;2022-08-21T12:37:58;7.55;;;1.60;;
52494;SDS011;38405;53.212;5.660;2022-08-21T12:40:37;10.45;;;2.15;;
52494;SDS011;38405;53.212;5.660;2022-08-21T12:43:06;6.68;;;1.85;;
52494;SDS011;38405;53.212;5.660;2022-08-21T12:45:44;6.03;;;1.77;;
52494;SDS011;38405;53.212;5.660;2022-08-21T12:50:55;9.18;;;1.90;;
52494;SDS011;38405;53.212;5.660;2022-08-21T12:53:30;6.30;;;1.90;;
52494;SDS011;38405;53.212;5.660;2022-08-21T12:56:09;6.30;;;1.70;;
52494;SDS011;38405;53.212;5.660;2022-08-21T12:58:39;7.57;;;1.50;;
52494;SDS011;38405;53.212;5.660;2022-08-21T13:01:16;7.90;;;1.38;;
52494;SDS011;38405;53.212;5.660;2022-08-21T13:03:43;5.78;;;1.60;;
52494;SDS011;38405;53.212;5.660;2022-08-21T13:06:13;7.22;;;1.65;;
52494;SDS011;38405;53.212;5.660;2022-08-21T13:08:41;3.95;;;1.33;;
52494;SDS011;38405;53.212;5.660;2022-08-21T13:11:10;10.27;;;1.92;;
52494;SDS011;38405;53.212;5.660;2022-08-21T13:13:36;5.82;;;1.98;;
52494;SDS011;38405;53.212;5.660;2022-08-21T13:16:04;6.85;;;1.70;;
52494;SDS011;38405;53.212;5.660;2022-08-21T13:18:33;9.25;;;1.80;;
52494;SDS011;38405;53.212;5.660;2022-08-21T13:21:06;8.43;;;1.80;;
52494;SDS011;38405;53.212;5.660;2022-08-21T13:23:35;6.07;;;1.80;;
52494;SDS011;38405;53.212;5.660;2022-08-21T13:26:10;8.73;;;1.80;;
52494;SDS011;38405;53.212;5.660;2022-08-21T13:28:44;6.50;;;1.73;;
52494;SDS011;38405;53.212;5.660;2022-08-21T13:31:12;11.55;;;1.58;;
52494;SDS011;38405;53.212;5.660;2022-08-21T13:33:45;7.35;;;1.90;;
52494;SDS011;38405;53.212;5.660;2022-08-21T13:36:56;5.93;;;1.67;;
52494;SDS011;38405;53.212;5.660;2022-08-21T13:39:08;8.57;;;2.03;;
52494;SDS011;38405;53.212;5.660;2022-08-21T13:41:37;7.10;;;1.98;;
52494;SDS011;38405;53.212;5.660;2022-08-21T13:44:13;4.63;;;1.35;;
52494;SDS011;38405;53.212;5.660;2022-08-21T13:46:44;6.22;;;1.58;;
52494;SDS011;38405;53.212;5.660;2022-08-21T13:49:12;6.63;;;1.90;;
52494;SDS011;38405;53.212;5.660;2022-08-21T13:51:40;7.57;;;1.83;;
52494;SDS011;38405;53.212;5.660;2022-08-21T13:56:47;6.90;;;1.67;;
52494;SDS011;38405;53.212;5.660;2022-08-21T13:59:14;9.38;;;2.00;;
52494;SDS011;38405;53.212;5.660;2022-08-21T14:01:59;5.65;;;1.70;;
52494;SDS011;38405;53.212;5.660;2022-08-21T14:04:37;7.55;;;1.83;;
52494;SDS011;38405;53.212;5.660;2022-08-21T14:09:43;7.88;;;1.92;;
52494;SDS011;38405;53.212;5.660;2022-08-21T14:12:19;9.80;;;2.25;;
52494;SDS011;38405;53.212;5.660;2022-08-21T14:14:51;6.63;;;1.98;;
52494;SDS011;38405;53.212;5.660;2022-08-21T14:17:29;7.97;;;2.10;;
52494;SDS011;38405;53.212;5.660;2022-08-21T14:19:58;6.47;;;1.92;;
52494;SDS011;38405;53.212;5.660;2022-08-21T14:24:58;6.43;;;1.85;;
52494;SDS011;38405;53.212;5.660;2022-08-21T14:27:26;8.80;;;2.17;;
52494;SDS011;38405;53.212;5.660;2022-08-21T14:30:00;6.63;;;1.60;;
52494;SDS011;38405;53.212;5.660;2022-08-21T14:32:30;6.10;;;1.67;;
52494;SDS011;38405;53.212;5.660;2022-08-21T14:35:05;9.52;;;2.00;;
52494;SDS011;38405;53.212;5.660;2022-08-21T14:37:31;5.70;;;2.00;;
52494;SDS011;38405;53.212;5.660;2022-08-21T14:39:57;5.45;;;1.92;;
52494;SDS011;38405;53.212;5.660;2022-08-21T14:42:23;6.40;;;1.92;;
52494;SDS011;38405;53.212;5.660;2022-08-21T14:44:48;5.30;;;1.90;;
52494;SDS011;38405;53.212;5.660;2022-08-21T14:47:14;8.18;;;1.88;;
52494;SDS011;38405;53.212;5.660;2022-08-21T14:49:40;9.60;;;2.10;;
52494;SDS011;38405;53.212;5.660;2022-08-21T14:52:06;8.30;;;2.10;;
52494;SDS011;38405;53.212;5.660;2022-08-21T14:54:32;8.30;;;1.92;;
52494;SDS011;38405;53.212;5.660;2022-08-21T14:57:05;7.50;;;2.08;;
52494;SDS011;38405;53.212;5.660;2022-08-21T14:59:34;6.78;;;2.00;;
52494;SDS011;38405;53.212;5.660;2022-08-21T15:02:01;6.05;;;1.88;;
52494;SDS011;38405;53.212;5.660;2022-08-21T15:04:29;7.45;;;1.73;;
52494;SDS011;38405;53.212;5.660;2022-08-21T15:06:54;6.78;;;1.80;;
52494;SDS011;38405;53.212;5.660;2022-08-21T15:09:21;10.10;;;2.53;;
52494;SDS011;38405;53.212;5.660;2022-08-21T15:11:47;5.18;;;1.75;;
52494;SDS011;38405;53.212;5.660;2022-08-21T15:14:34;7.30;;;2.47;;
52494;SDS011;38405;53.212;5.660;2022-08-21T15:17:01;9.63;;;2.22;;
52494;SDS011;38405;53.212;5.660;2022-08-21T15:19:28;5.70;;;2.10;;
52494;SDS011;38405;53.212;5.660;2022-08-21T15:21:55;9.57;;;2.28;;
52494;SDS011;38405;53.212;5.660;2022-08-21T15:24:21;13.90;;;2.53;;
52494;SDS011;38405;53.212;5.660;2022-08-21T15:26:47;6.57;;;2.28;;
52494;SDS011;38405;53.212;5.660;2022-08-21T15:29:13;8.50;;;2.67;;
52494;SDS011;38405;53.212;5.660;2022-08-21T15:31:58;9.75;;;2.30;;
52494;SDS011;38405;53.212;5.660;2022-08-21T15:34:26;9.48;;;2.30;;
52494;SDS011;38405;53.212;5.660;2022-08-21T15:36:54;7.75;;;2.17;;
52494;SDS011;38405;53.212;5.660;2022-08-21T15:39:21;6.75;;;2.55;;
52494;SDS011;38405;53.212;5.660;2022-08-21T15:41:47;6.18;;;1.90;;
52494;SDS011;38405;53.212;5.660;2022-08-21T15:44:13;8.73;;;2.22;;
52494;SDS011;38405;53.212;5.660;2022-08-21T15:46:39;7.57;;;2.25;;
52494;SDS011;38405;53.212;5.660;2022-08-21T15:49:06;6.57;;;2.22;;
52494;SDS011;38405;53.212;5.660;2022-08-21T15:51:32;10.43;;;2.30;;
52494;SDS011;38405;53.212;5.660;2022-08-21T15:53:59;7.18;;;2.13;;
52494;SDS011;38405;53.212;5.660;2022-08-21T15:56:35;7.70;;;2.15;;
52494;SDS011;38405;53.212;5.660;2022-08-21T15:59:12;7.78;;;2.67;;
52494;SDS011;38405;53.212;5.660;2022-08-21T16:01:40;7.72;;;2.90;;
52494;SDS011;38405;53.212;5.660;2022-08-21T16:04:06;13.05;;;3.00;;
52494;SDS011;38405;53.212;5.660;2022-08-21T16:06:32;7.50;;;2.33;;
52494;SDS011;38405;53.212;5.660;2022-08-21T16:08:59;7.80;;;2.38;;
52494;SDS011;38405;53.212;5.660;2022-08-21T16:11:25;8.95;;;2.60;;
52494;SDS011;38405;53.212;5.660;2022-08-21T16:13:52;6.47;;;2.30;;
52494;SDS011;38405;53.212;5.660;2022-08-21T16:16:19;8.65;;;2.28;;
52494;SDS011;38405;53.212;5.660;2022-08-21T16:18:46;5.85;;;2.55;;
52494;SDS011;38405;53.212;5.660;2022-08-21T16:21:13;8.05;;;2.42;;